Time;durP1;ratioP1;P1;durP2;ratioP2;P2;SDS_P1;SDS_P2;PMS_P1;PMS_P2;Temp;Humidity;BMP_temperature;BMP_pressure;BME280_temperature;BME280_humidity;BME280_pressure;Samples;Min_cycle;Max_cycle;Signal;HPM_P1;HPM_P2
2023/02/21 02:15:35;;;;;;;0.50;0.50;;;;;;;4.84;68.14;97049.13;5024291;28;20476;-57
2023/02/21 02:18:27;;;;;;;0.50;0.50;;;;;;;4.87;68.44;97053.94;5023559;28;20491;-57
2023/02/21 02:21:17;;;;;;;0.40;0.40;;;;;;;5.00;68.06;97044.63;5023987;28;20532;-57
2023/02/21 02:23:55;;;;;;;0.50;0.50;;;;;;;5.09;67.61;97039.91;5020394;28;20107;-54
2023/02/21 02:26:40;;;;;;;0.50;0.50;;;;;;;5.14;67.55;97036.94;5023769;28;20512;-55
2023/02/21 02:29:24;;;;;;;0.50;0.50;;;;;;;5.07;67.52;97031.19;5022173;28;20144;-55
2023/02/21 02:32:19;;;;;;;0.50;0.50;;;;;;;4.94;67.39;97011.09;5023816;28;20136;-55
2023/02/21 02:35:23;;;;;;;0.50;0.50;;;;;;;5.09;68.06;97012.44;5023801;28;20054;-55
2023/02/21 02:38:02;;;;;;;0.50;0.50;;;;;;;5.07;68.05;97014.72;5023692;28;20053;-56
2023/02/21 02:40:56;;;;;;;0.47;0.47;;;;;;;5.02;68.28;97006.69;5023921;28;20053;-54
2023/02/21 02:43:29;;;;;;;0.50;0.50;;;;;;;5.04;67.57;97001.66;5023939;28;20057;-56
2023/02/21 02:46:04;;;;;;;0.50;0.50;;;;;;;5.00;67.47;97019.91;5021257;28;20491;-57
2023/02/21 02:48:43;;;;;;;0.50;0.50;;;;;;;4.95;67.18;97011.91;5022042;28;20572;-55
2023/02/21 02:51:14;;;;;;;0.50;0.50;;;;;;;4.32;67.63;96934.25;5023386;28;20053;-55
2023/02/21 02:53:41;;;;;;;0.50;0.50;;;;;;;4.92;66.69;97029.03;5023739;28;20052;-54
2023/02/21 02:56:12;;;;;;;0.50;0.50;;;;;;;4.91;67.60;97027.44;5023520;28;20069;-54
2023/02/21 02:58:57;;;;;;;0.50;0.50;;;;;;;5.04;66.71;97040.09;4863510;28;5001253;-55
2023/02/21 03:01:29;;;;;;;0.50;0.50;;;;;;;4.99;66.71;97040.28;5023591;28;20061;-55
2023/02/21 03:04:08;;;;;;;0.50;0.50;;;;;;;4.90;67.89;97034.84;5022219;28;20060;-55
2023/02/21 03:06:44;;;;;;;0.50;0.50;;;;;;;4.97;68.89;97037.06;5023724;28;20496;-54
2023/02/21 03:09:26;;;;;;;0.50;0.50;;;;;;;4.57;68.45;96981.81;5021922;28;20496;-55
2023/02/21 03:12:02;;;;;;;0.50;0.50;;;;;;;4.52;68.98;97032.19;5022214;28;20147;-54
2023/02/21 03:15:00;;;;;;;0.50;0.50;;;;;;;4.81;69.12;97044.28;5023196;28;20479;-55
2023/02/21 03:17:31;;;;;;;0.43;0.43;;;;;;;4.80;68.81;97064.63;5021517;28;20057;-54
2023/02/21 03:20:01;;;;;;;0.50;0.50;;;;;;;4.65;68.15;97017.44;5022916;28;20064;-56
2023/02/21 03:22:30;;;;;;;0.50;0.50;;;;;;;4.68;69.03;97048.09;5022268;28;20049;-56
2023/02/21 03:25:00;;;;;;;0.47;0.47;;;;;;;4.36;68.82;97006.47;5023028;28;20100;-54
2023/02/21 03:27:29;;;;;;;0.50;0.50;;;;;;;4.17;68.59;96995.13;5023416;28;20050;-55
2023/02/21 03:29:59;;;;;;;0.40;0.40;;;;;;;4.41;69.04;97039.19;5023043;28;20073;-56
2023/02/21 03:34:57;;;;;;;0.40;0.40;;;;;;;4.24;68.69;97020.09;5022665;28;20069;-56
2023/02/21 03:37:31;;;;;;;0.40;0.40;;;;;;;1.22;69.23;96536.91;5023417;28;20107;-55
2023/02/21 03:39:59;;;;;;;0.40;0.40;;;;;;;4.10;70.68;97014.03;5023374;28;20639;-54
2023/02/21 03:42:26;;;;;;;0.50;0.50;;;;;;;3.94;71.12;96982.84;5022921;28;20048;-55
2023/02/21 03:44:52;;;;;;;0.40;0.40;;;;;;;4.30;69.44;97018.78;5022089;28;20061;-56
2023/02/21 03:47:19;;;;;;;0.50;0.50;;;;;;;4.21;70.60;97042.69;5022275;28;20049;-55
2023/02/21 03:49:46;;;;;;;0.40;0.40;;;;;;;4.12;70.93;96995.34;5021777;28;20049;-55
2023/02/21 03:52:13;;;;;;;0.40;0.40;;;;;;;4.43;71.89;97017.75;5023137;28;20045;-55
2023/02/21 03:54:40;;;;;;;0.50;0.50;;;;;;;4.63;71.20;97011.47;5022901;28;20220;-55
2023/02/21 03:57:07;;;;;;;0.50;0.50;;;;;;;4.86;69.46;97013.91;5023267;28;20101;-56
2023/02/21 03:59:34;;;;;;;0.50;0.50;;;;;;;3.65;68.50;96815.72;5022447;28;20095;-55
2023/02/21 04:02:01;;;;;;;0.50;0.50;;;;;;;4.35;68.44;96955.53;5024828;28;20054;-55
2023/02/21 04:04:28;;;;;;;0.50;0.50;;;;;;;4.86;69.44;97041.34;5026201;28;20556;-56
2023/02/21 04:06:54;;;;;;;0.47;0.47;;;;;;;4.79;69.09;96980.72;5026581;28;20436;-55
2023/02/21 04:09:22;;;;;;;0.50;0.50;;;;;;;4.72;68.67;96969.47;5024145;28;20457;-55
2023/02/21 04:11:48;;;;;;;0.50;0.50;;;;;;;4.62;68.23;96930.34;5024441;28;20050;-55
2023/02/21 04:14:15;;;;;;;0.50;0.50;;;;;;;5.10;67.83;97019.53;5026074;28;20487;-56
2023/02/21 04:16:42;;;;;;;0.50;0.50;;;;;;;4.99;68.60;96996.38;5025825;28;20110;-55
2023/02/21 04:19:08;;;;;;;0.50;0.50;;;;;;;5.08;68.18;97038.25;5025418;28;20080;-56
2023/02/21 04:21:35;;;;;;;0.50;0.50;;;;;;;4.91;69.44;97016.44;5026016;28;20077;-55
2023/02/21 04:24:02;;;;;;;0.50;0.50;;;;;;;4.96;69.52;97010.78;5026049;28;20136;-56
2023/02/21 04:26:28;;;;;;;0.50;0.50;;;;;;;4.84;70.05;97035.41;5025503;28;20160;-54
2023/02/21 04:28:55;;;;;;;0.50;0.50;;;;;;;4.82;70.22;97029.44;5026086;28;20041;-55
2023/02/21 04:31:22;;;;;;;0.50;0.50;;;;;;;4.60;70.77;97008.59;5025738;28;20053;-56
2023/02/21 04:33:49;;;;;;;0.50;0.50;;;;;;;4.62;71.60;97004.41;5024624;28;20053;-55
2023/02/21 04:36:28;;;;;;;0.50;0.50;;;;;;;4.68;70.63;97006.94;5025568;28;20060;-55
2023/02/21 04:38:54;;;;;;;0.50;0.50;;;;;;;4.29;70.63;96962.34;5025862;28;20512;-56
2023/02/21 04:41:22;;;;;;;0.40;0.40;;;;;;;4.42;70.66;97002.44;5025045;28;20045;-55
2023/02/21 04:43:49;;;;;;;0.50;0.50;;;;;;;4.11;72.59;97021.13;5025508;28;20516;-56
2023/02/21 04:46:17;;;;;;;0.45;0.45;;;;;;;4.32;72.53;97016.50;5025578;28;20137;-55
2023/02/21 04:48:49;;;;;;;0.50;0.50;;;;;;;4.48;71.44;97030.44;5025825;28;20042;-55
2023/02/21 04:51:18;;;;;;;0.40;0.40;;;;;;;4.27;71.93;97013.94;5023238;28;20041;-55
2023/02/21 04:53:47;;;;;;;0.45;0.45;;;;;;;4.32;71.75;97022.00;5024296;28;20099;-55
2023/02/21 04:56:14;;;;;;;0.50;0.50;;;;;;;4.07;72.42;97017.44;5025984;28;20115;-55
2023/02/21 04:58:41;;;;;;;0.50;0.50;;;;;;;4.13;72.60;97013.38;5025908;28;20049;-55
2023/02/21 05:01:12;;;;;;;0.40;0.40;;;;;;;3.93;73.24;96970.28;5025494;28;20053;-54
2023/02/21 05:03:39;;;;;;;0.40;0.40;;;;;;;4.37;72.14;97013.59;5025638;28;20140;-55
2023/02/21 05:06:07;;;;;;;0.50;0.50;;;;;;;4.48;71.62;97016.75;5025266;28;20144;-55
2023/02/21 05:08:35;;;;;;;0.50;0.50;;;;;;;4.59;71.31;97010.56;5024299;28;20050;-55
2023/02/21 05:11:02;;;;;;;0.50;0.50;;;;;;;4.26;70.62;96935.59;5024322;28;20512;-56
2023/02/21 05:13:29;;;;;;;0.50;0.50;;;;;;;4.28;70.82;96936.03;5025324;28;20116;-55
2023/02/21 05:15:55;;;;;;;0.50;0.50;;;;;;;4.82;71.22;97002.00;5024853;28;20093;-55
2023/02/21 05:18:27;;;;;;;0.50;0.50;;;;;;;3.81;73.38;96966.63;5024713;28;20049;-56
2023/02/21 05:20:54;;;;;;;0.43;0.43;;;;;;;4.21;74.35;97026.25;5024785;28;20068;-55
2023/02/21 05:23:54;;;;;;;0.45;0.45;;;;;;;4.30;73.62;96990.56;5025272;28;20393;-55
2023/02/21 05:26:12;;;;;;;0.50;0.50;;;;;;;4.41;73.67;97009.03;5024403;28;20049;-55
2023/02/21 05:28:40;;;;;;;0.50;0.50;;;;;;;4.24;73.27;96958.97;5023414;28;20057;-56
2023/02/21 05:31:07;;;;;;;0.50;0.50;;;;;;;4.75;72.55;97018.19;5024241;28;20497;-55
2023/02/21 05:33:34;;;;;;;0.50;0.50;;;;;;;4.73;71.83;97009.50;5025025;28;20061;-55
2023/02/21 05:36:01;;;;;;;0.50;0.50;;;;;;;4.77;71.10;97004.94;5023345;28;20103;-55
2023/02/21 05:38:27;;;;;;;0.50;0.50;;;;;;;5.00;70.58;97025.41;5022765;28;20484;-57
2023/02/21 05:40:54;;;;;;;0.50;0.50;;;;;;;5.14;69.47;97018.50;5024528;28;20115;-56
2023/02/21 05:43:21;;;;;;;0.50;0.50;;;;;;;5.16;69.65;97020.91;5024513;28;20057;-56
2023/02/21 05:45:47;;;;;;;0.50;0.50;;;;;;;5.29;68.62;97022.59;5024417;28;20119;-57
2023/02/21 05:48:14;;;;;;;0.50;0.50;;;;;;;5.27;69.29;97027.63;5024629;28;20045;-56
2023/02/21 05:50:41;;;;;;;0.50;0.50;;;;;;;5.34;68.38;97031.41;5022860;28;20479;-56
2023/02/21 05:53:09;;;;;;;0.50;0.50;;;;;;;5.42;68.01;97011.31;5024546;28;20115;-55
2023/02/21 05:55:36;;;;;;;0.60;0.60;;;;;;;5.44;67.32;96986.25;5022982;28;20088;-56
2023/02/21 05:58:03;;;;;;;0.50;0.50;;;;;;;5.53;68.20;97008.97;5023923;28;20556;-56
2023/02/21 06:00:30;;;;;;;0.50;0.50;;;;;;;5.51;67.85;97017.53;5024291;28;20053;-56
2023/02/21 06:02:57;;;;;;;0.50;0.50;;;;;;;5.39;68.56;97022.19;5023669;28;20115;-56
2023/02/21 06:05:24;;;;;;;0.50;0.50;;;;;;;5.59;68.88;97002.09;5024046;28;20068;-55
2023/02/21 06:07:51;;;;;;;0.50;0.50;;;;;;;5.70;67.63;96990.34;5024018;28;20076;-56
2023/02/21 06:10:18;;;;;;;0.50;0.50;;;;;;;6.00;66.14;97016.56;5023977;28;20042;-59
2023/02/21 06:12:45;;;;;;;0.50;0.50;;;;;;;5.61;68.72;97014.34;5023722;28;20053;-56
2023/02/21 06:15:12;;;;;;;0.50;0.50;;;;;;;4.99;70.84;97007.34;5023593;28;20475;-56
2023/02/21 06:17:40;;;;;;;0.40;0.40;;;;;;;5.37;69.99;97018.97;5023296;28;20161;-55
2023/02/21 06:20:09;;;;;;;0.50;0.50;;;;;;;5.73;69.48;97010.84;5023513;28;20515;-55
2023/02/21 06:22:36;;;;;;;0.50;0.50;;;;;;;5.94;68.34;97006.13;5023840;28;20061;-56
2023/02/21 06:25:03;;;;;;;0.50;0.50;;;;;;;6.18;66.91;97017.13;5023323;28;20053;-56
2023/02/21 06:27:29;;;;;;;0.60;0.60;;;;;;;5.95;66.12;96958.22;5022334;28;20061;-57
2023/02/21 06:29:56;;;;;;;0.60;0.60;;;;;;;6.52;65.21;97027.69;5023769;28;20107;-55
2023/02/21 06:32:22;;;;;;;0.50;0.50;;;;;;;6.35;63.60;96961.91;5023373;28;20758;-57
2023/02/21 06:34:49;;;;;;;0.50;0.50;;;;;;;6.96;63.33;97004.69;5023864;28;20072;-55
2023/02/21 06:37:17;;;;;;;0.60;0.60;;;;;;;4.82;61.72;96612.38;5023621;28;20061;-56
2023/02/21 06:39:44;;;;;;;0.60;0.60;;;;;;;7.56;61.09;97017.44;5023482;28;20091;-56
2023/02/21 06:42:15;;;;;;;0.60;0.60;;;;;;;7.98;59.91;97026.09;5023742;28;20077;-56
2023/02/21 06:44:46;;;;;;;0.63;0.63;;;;;;;8.41;59.16;97026.06;5022173;28;20057;-56
2023/02/21 06:47:13;;;;;;;0.70;0.70;;;;;;;8.83;57.97;97016.03;5023591;28;20045;-56
2023/02/21 06:49:40;;;;;;;0.80;0.80;;;;;;;9.06;56.90;96989.31;5021886;28;20061;-56
2023/02/21 06:52:07;;;;;;;0.70;0.70;;;;;;;9.43;55.02;97001.56;5023351;28;20088;-55
2023/02/21 06:54:34;;;;;;;0.70;0.70;;;;;;;9.72;54.80;97003.72;5023352;28;20527;-58
2023/02/21 06:57:00;;;;;;;0.70;0.70;;;;;;;9.88;53.80;97001.66;5015211;28;20038;-57
2023/02/21 06:59:28;;;;;;;0.70;0.70;;;;;;;10.38;53.84;96998.66;5022974;28;20053;-58
2023/02/21 07:01:56;;;;;;;0.80;0.80;;;;;;;10.62;52.68;96959.47;5021433;28;20103;-60
2023/02/21 07:04:23;;;;;;;0.90;0.90;;;;;;;10.75;52.38;96924.03;5020918;28;20450;-57
2023/02/21 07:06:51;;;;;;;0.90;0.90;;;;;;;11.03;53.71;97006.78;5023173;28;20057;-57
2023/02/21 07:09:18;;;;;;;1.00;1.00;;;;;;;11.59;52.66;96977.00;5023310;28;20476;-57
2023/02/21 07:11:45;;;;;;;1.02;1.02;;;;;;;11.85;51.60;96965.88;5021944;28;20104;-56
2023/02/21 07:14:12;;;;;;;1.00;1.00;;;;;;;12.39;50.71;96970.75;5002910;28;20054;-57
2023/02/21 07:16:39;;;;;;;0.98;0.98;;;;;;;12.54;50.10;96970.47;5016618;28;20054;-55
2023/02/21 07:19:06;;;;;;;1.10;1.10;;;;;;;12.19;49.61;96847.97;5022856;28;20053;-58
2023/02/21 07:21:33;;;;;;;1.00;1.00;;;;;;;13.29;49.53;96962.25;5021636;28;20101;-58
2023/02/21 07:23:59;;;;;;;1.20;1.20;;;;;;;13.12;49.04;96896.22;5020802;28;20167;-60
2023/02/21 07:26:26;;;;;;;1.10;1.10;;;;;;;13.32;47.43;96963.47;5017605;28;20112;-56
2023/02/21 07:28:53;;;;;;;1.20;1.20;;;;;;;13.65;47.07;96946.53;5009440;28;20056;-60
2023/02/21 07:31:19;;;;;;;1.13;1.13;;;;;;;13.97;45.49;96943.84;5018230;28;20057;-59
2023/02/21 07:33:47;;;;;;;1.20;1.20;;;;;;;14.34;43.30;96955.44;5023048;28;20051;-60
2023/02/21 07:36:13;;;;;;;1.20;1.20;;;;;;;14.32;42.42;96947.47;5017279;28;20100;-60
2023/02/21 07:38:40;;;;;;;1.20;1.20;;;;;;;14.60;42.32;96908.50;5006852;28;20092;-60
2023/02/21 07:41:07;;;;;;;1.40;1.40;;;;;;;14.97;41.79;96955.41;5009487;28;20137;-58
2023/02/21 07:43:33;;;;;;;1.40;1.40;;;;;;;14.65;43.18;96949.09;5010322;28;20049;-60
2023/02/21 07:46:00;;;;;;;1.20;1.20;;;;;;;14.83;42.39;96927.56;5009354;28;20136;-61
2023/02/21 07:48:27;;;;;;;1.20;1.20;;;;;;;14.92;40.95;96902.88;5006417;28;20045;-58
2023/02/21 07:50:54;;;;;;;1.42;1.42;;;;;;;15.60;40.50;96938.53;5009244;28;20538;-59
2023/02/21 07:53:21;;;;;;;1.50;1.50;;;;;;;15.87;39.88;96922.84;5019608;28;20053;-58
2023/02/21 07:55:47;;;;;;;1.52;1.52;;;;;;;15.90;39.39;96874.53;5013731;28;20471;-59
2023/02/21 07:58:14;;;;;;;1.80;1.80;;;;;;;16.10;39.79;96953.03;5022666;28;20091;-58
2023/02/21 08:00:40;;;;;;;1.65;1.65;;;;;;;15.85;38.56;96849.03;5025901;28;20131;-60
2023/02/21 08:03:12;;;;;;;1.55;1.55;;;;;;;16.78;37.96;96917.78;5026062;28;20064;-60
2023/02/21 08:05:39;;;;;;;1.60;1.60;;;;;;;17.03;37.32;96918.34;5025728;28;20068;-56
2023/02/21 08:08:08;;;;;;;1.60;1.60;;;;;;;17.10;36.84;96912.69;5023263;28;20061;-57
2023/02/21 08:10:35;;;;;;;1.50;1.50;;;;;;;16.93;35.74;96908.06;5024633;28;20577;-56
2023/02/21 08:13:03;;;;;;;1.98;1.98;;;;;;;15.24;35.79;96568.69;5005988;28;20053;-56
2023/02/21 08:15:29;;;;;;;1.80;1.80;;;;;;;17.42;36.37;96901.94;5017929;28;20160;-57
2023/02/21 08:17:56;;;;;;;1.80;1.80;;;;;;;17.50;35.87;96911.84;5012722;28;20049;-54
2023/02/21 08:20:22;;;;;;;2.20;2.20;;;;;;;17.35;35.44;96899.22;5011294;28;20544;-57
2023/02/21 08:22:49;;;;;;;1.75;1.75;;;;;;;16.96;36.26;96851.28;5024331;28;20108;-56
2023/02/21 08:25:16;;;;;;;1.80;1.80;;;;;;;17.29;35.22;96856.84;5025425;28;20538;-57
2023/02/21 08:27:43;;;;;;;1.73;1.73;;;;;;;17.68;35.76;96884.41;5024539;28;20081;-56
2023/02/21 08:30:16;;;;;;;1.90;1.90;;;;;;;17.35;34.14;96823.59;5022167;28;20520;-58
2023/02/21 08:32:46;;;;;;;1.80;1.80;;;;;;;17.89;33.23;96886.94;5005867;28;20466;-55
2023/02/21 08:35:14;;;;;;;1.95;1.95;;;;;;;17.68;32.92;96828.38;5009329;28;20056;-53
2023/02/21 08:37:45;;;;;;;1.60;1.60;;;;;;;18.01;32.20;96861.13;5013972;28;20119;-56
2023/02/21 08:40:13;;;;;;;1.90;1.90;;;;;;;17.81;32.71;96843.41;5018512;28;20098;-55
2023/02/21 08:42:40;;;;;;;1.80;1.80;;;;;;;17.97;32.13;96854.78;5024269;28;20050;-57
2023/02/21 08:45:13;;;;;;;1.70;1.70;;;;;;;18.22;31.51;96865.59;5017991;28;20107;-57
2023/02/21 08:47:40;;;;;;;1.90;1.90;;;;;;;18.26;31.77;96850.31;5016952;28;20108;-57
2023/02/21 08:50:07;;;;;;;1.88;1.88;;;;;;;18.20;32.38;96845.59;5026329;28;20103;-57
2023/02/21 08:52:34;;;;;;;1.80;1.80;;;;;;;18.39;31.28;96864.56;5025470;28;20197;-54
2023/02/21 08:55:00;;;;;;;1.77;1.77;;;;;;;18.36;31.61;96842.94;5021962;28;20073;-56
2023/02/21 08:57:27;;;;;;;1.77;1.77;;;;;;;18.25;31.81;96831.09;5005771;28;20100;-57
2023/02/21 08:59:54;;;;;;;2.10;2.10;;;;;;;18.28;31.59;96836.66;5014618;28;20410;-57
2023/02/21 09:02:27;;;;;;;1.85;1.85;;;;;;;17.96;31.98;96816.75;5020886;28;20088;-56
2023/02/21 09:04:54;;;;;;;;;;;;;;;18.25;32.22;96854.34;5022535;28;20542;-55
2023/02/21 09:07:21;;;;;;;1.80;1.80;;;;;;;17.74;32.60;96798.66;5042329;28;20020;-58
2023/02/21 09:09:48;;;;;;;1.92;1.92;;;;;;;18.00;32.18;96842.72;5008261;28;20137;-57
2023/02/21 09:12:15;;;;;;;1.88;1.88;;;;;;;18.06;32.26;96869.06;5017321;28;20045;-56
2023/02/21 09:14:43;;;;;;;2.05;2.05;;;;;;;17.19;32.40;96747.81;5004867;28;20053;-55
2023/02/21 09:17:13;;;;;;;1.83;1.83;;;;;;;17.96;32.21;96875.59;5023367;28;20131;-57
2023/02/21 09:19:40;;;;;;;1.70;1.70;;;;;;;18.00;31.97;96873.56;5018743;28;20064;-56
2023/02/21 09:22:09;;;;;;;1.80;1.80;;;;;;;18.18;32.17;96864.88;5022446;28;20064;-59
2023/02/21 09:24:38;;;;;;;1.80;1.80;;;;;;;17.70;31.99;96806.34;5023445;28;20049;-56
2023/02/21 09:27:05;;;;;;;1.70;1.70;;;;;;;18.12;32.19;96875.75;5024953;28;20049;-57
2023/02/21 09:29:34;;;;;;;1.80;1.80;;;;;;;18.27;32.13;96870.75;5024492;28;20068;-60
2023/02/21 09:32:12;;;;;;;1.80;1.80;;;;;;;18.54;31.96;96872.31;5023492;28;20050;-55
2023/02/21 09:34:40;;;;;;;2.00;2.00;;;;;;;18.57;31.75;96871.47;5022094;28;20504;-59
2023/02/21 09:37:07;;;;;;;1.98;1.98;;;;;;;18.64;31.64;96874.16;5008253;28;20128;-56
2023/02/21 09:39:36;;;;;;;2.20;2.20;;;;;;;18.70;31.85;96863.25;5015345;28;20069;-57
2023/02/21 09:42:02;;;;;;;1.77;1.77;;;;;;;18.57;31.91;96859.44;5024165;28;20512;-58
2023/02/21 09:44:31;;;;;;;1.80;1.80;;;;;;;18.37;31.85;96833.31;5022039;28;20672;-55
2023/02/21 09:47:04;;;;;;;1.90;1.90;;;;;;;17.56;31.73;96681.28;5011138;28;20077;-57
2023/02/21 09:49:36;;;;;;;1.90;1.90;;;;;;;18.74;31.57;96856.34;5004132;28;20140;-57
2023/02/21 09:52:03;;;;;;;2.05;2.05;;;;;;;18.32;31.74;96784.09;5005253;28;20065;-57
2023/02/21 09:54:30;;;;;;;2.05;2.05;;;;;;;18.94;31.24;96845.94;5004040;28;20212;-57
2023/02/21 09:57:00;;;;;;;2.00;2.00;;;;;;;18.86;31.15;96844.47;5019802;28;20080;-57
2023/02/21 09:59:27;;;;;;;2.20;2.20;;;;;;;18.83;31.15;96839.72;5023254;28;20398;-57
2023/02/21 10:02:39;;;;;;;1.90;1.90;;;;;;;18.96;31.14;96842.69;5020539;28;20154;-56
2023/02/21 10:05:40;;;;;;;2.10;2.10;;;;;;;18.27;31.17;96722.91;5007787;28;20108;-56
2023/02/21 10:08:21;;;;;;;2.17;2.17;;;;;;;19.17;29.90;96840.25;5022215;28;20049;-56
2023/02/21 10:11:23;;;;;;;2.00;2.00;;;;;;;19.34;29.64;96825.13;5022447;28;20107;-56
2023/02/21 10:14:17;;;;;;;2.15;2.15;;;;;;;19.29;29.38;96808.75;5023106;28;20053;-54
2023/02/21 10:17:03;;;;;;;;;;;;;;;19.65;29.05;96816.44;5023966;28;20497;-55
2023/02/21 10:19:37;;;;;;;2.13;2.13;;;;;;;19.72;29.08;96819.88;5053308;28;19925;-55
2023/02/21 10:22:19;;;;;;;2.10;2.10;;;;;;;19.84;29.25;96805.13;5022044;28;20073;-55
2023/02/21 10:24:48;;;;;;;2.15;2.15;;;;;;;19.43;29.32;96757.88;5023930;28;20554;-58
2023/02/21 10:27:23;;;;;;;2.10;2.10;;;;;;;19.86;29.59;96807.50;5022187;28;20084;-56
2023/02/21 10:29:56;;;;;;;2.28;2.28;;;;;;;19.91;29.45;96804.19;5022482;28;20498;-56
2023/02/21 10:32:24;;;;;;;2.10;2.10;;;;;;;19.90;29.65;96792.13;5023983;28;20547;-57
2023/02/21 10:34:53;;;;;;;1.92;1.92;;;;;;;19.98;29.71;96801.22;5022223;28;20119;-56
2023/02/21 10:37:45;;;;;;;2.13;2.13;;;;;;;20.01;29.34;96789.09;5023348;28;20046;-55
2023/02/21 10:40:34;;;;;;;2.22;2.22;;;;;;;19.77;29.62;96779.22;5021484;28;20091;-56
2023/02/21 10:43:16;;;;;;;1.80;1.80;;;;;;;19.94;29.39;96778.00;5020974;28;20295;-56
2023/02/21 10:46:00;;;;;;;2.28;2.28;;;;;;;20.27;29.06;96774.00;5010072;28;20056;-57
2023/02/21 10:48:33;;;;;;;2.40;2.40;;;;;;;20.51;28.13;96766.94;5016586;28;20049;-58
2023/02/21 10:51:15;;;;;;;2.20;2.20;;;;;;;18.80;28.51;96442.06;5035484;28;20064;-59
2023/02/21 10:53:46;;;;;;;2.60;2.50;;;;;;;21.20;28.04;96752.16;5015405;28;20061;-57
2023/02/21 10:56:18;;;;;;;2.33;2.30;;;;;;;21.05;27.48;96745.34;5013953;28;20057;-56
2023/02/21 10:59:04;;;;;;;2.17;2.17;;;;;;;20.95;27.45;96706.97;5022364;28;20136;-57
2023/02/21 11:01:32;;;;;;;2.20;2.20;;;;;;;21.24;26.68;96724.69;5017343;28;20053;-57
2023/02/21 11:04:04;;;;;;;2.45;2.35;;;;;;;21.15;26.46;96681.50;5022632;28;20444;-56
2023/02/21 11:06:38;;;;;;;2.30;2.30;;;;;;;21.57;26.35;96730.91;5022698;28;20069;-58
2023/02/21 11:09:23;;;;;;;2.30;2.30;;;;;;;21.66;25.98;96723.34;5009124;28;20061;-57
2023/02/21 11:12:14;;;;;;;2.60;2.50;;;;;;;21.46;26.15;96714.34;5032146;28;20517;-56
2023/02/21 11:14:43;;;;;;;2.08;2.08;;;;;;;21.32;25.80;96706.31;5023192;28;20394;-57
2023/02/21 11:17:22;;;;;;;2.65;2.55;;;;;;;21.30;26.58;96700.34;5024380;28;20049;-57
2023/02/21 11:20:15;;;;;;;2.50;2.42;;;;;;;21.21;26.74;96690.97;5025644;28;20050;-56
2023/02/21 11:22:44;;;;;;;2.57;2.47;;;;;;;20.51;26.74;96614.97;5027354;28;20136;-56
2023/02/21 11:25:12;;;;;;;2.38;2.30;;;;;;;21.17;26.63;96691.06;5018695;28;20382;-58
2023/02/21 11:27:39;;;;;;;2.30;2.30;;;;;;;20.96;27.16;96712.19;5025640;28;20092;-58
2023/02/21 11:30:19;;;;;;;2.35;2.30;;;;;;;20.87;26.13;96702.78;5007323;28;20485;-58
2023/02/21 11:32:51;;;;;;;2.22;2.22;;;;;;;20.39;27.69;96691.69;5026811;28;20056;-58
2023/02/21 11:35:30;;;;;;;2.00;2.00;;;;;;;20.24;28.33;96690.47;5024864;28;20060;-59
2023/02/21 11:38:00;;;;;;;2.15;2.15;;;;;;;20.41;28.27;96694.84;5025069;28;20136;-58
2023/02/21 11:40:35;;;;;;;2.53;2.42;;;;;;;20.36;28.16;96701.78;5024918;28;20053;-59
2023/02/21 11:43:18;;;;;;;2.03;2.03;;;;;;;20.54;28.45;96687.25;5009513;28;20049;-59
2023/02/21 11:46:15;;;;;;;2.03;2.03;;;;;;;20.55;28.27;96666.34;5026828;28;20104;-58
2023/02/21 11:48:56;;;;;;;2.13;2.13;;;;;;;20.68;27.98;96678.41;5014836;28;20086;-58
2023/02/21 11:51:40;;;;;;;2.05;2.05;;;;;;;20.59;27.90;96669.81;5013850;28;20483;-59
2023/02/21 11:54:07;;;;;;;2.35;2.33;;;;;;;20.84;28.13;96672.72;5017569;28;20553;-57
2023/02/21 11:56:41;;;;;;;2.03;2.03;;;;;;;21.06;28.06;96662.44;5023451;28;20049;-56
2023/02/21 11:59:40;;;;;;;2.13;2.13;;;;;;;21.08;27.39;96614.88;5026089;28;20424;-56
2023/02/21 12:02:25;;;;;;;2.15;2.15;;;;;;;21.30;27.38;96660.88;5014646;28;20061;-56
2023/02/21 12:05:13;;;;;;;2.38;2.30;;;;;;;21.40;27.32;96656.94;5006277;28;20510;-58
2023/02/21 12:08:17;;;;;;;2.50;2.40;;;;;;;21.35;27.04;96639.81;5006059;28;20081;-55
2023/02/21 12:10:53;;;;;;;2.20;2.20;;;;;;;21.38;26.90;96659.44;5014681;28;20064;-58
2023/02/21 12:13:30;;;;;;;2.20;2.20;;;;;;;21.45;26.57;96645.09;5026244;28;20049;-59
2023/02/21 12:16:06;;;;;;;2.53;2.42;;;;;;;21.59;26.19;96639.00;5030083;28;20056;-56
2023/02/21 12:19:00;;;;;;;2.40;2.33;;;;;;;21.71;26.29;96641.03;5031539;28;20045;-55
2023/02/21 12:21:52;;;;;;;2.20;2.20;;;;;;;21.70;25.98;96627.38;5018769;28;20064;-54
2023/02/21 12:24:42;;;;;;;2.05;2.05;;;;;;;21.80;25.73;96632.69;5009100;28;20607;-57
2023/02/21 12:27:44;;;;;;;2.13;2.13;;;;;;;22.08;25.61;96606.31;5021902;28;20099;-57
2023/02/21 12:30:26;;;;;;;2.63;2.53;;;;;;;22.24;25.61;96606.16;5019590;28;20057;-57
2023/02/21 12:33:05;;;;;;;2.58;2.47;;;;;;;22.53;25.28;96610.81;5015845;28;20040;-53
2023/02/21 12:35:48;;;;;;;2.38;2.30;;;;;;;22.44;25.01;96608.69;5010468;28;20080;-57
2023/02/21 12:38:46;;;;;;;2.85;2.75;;;;;;;22.22;25.42;96602.22;5021159;28;20431;-58
2023/02/21 12:41:28;;;;;;;2.50;2.40;;;;;;;22.18;25.34;96602.34;5010992;28;20058;-57
2023/02/21 12:44:26;;;;;;;2.20;2.17;;;;;;;22.29;25.09;96642.25;5019451;28;20064;-57
2023/02/21 12:46:55;;;;;;;2.45;2.35;;;;;;;22.49;24.50;96594.75;5024080;28;21092;-52
2023/02/21 12:49:38;;;;;;;2.70;2.60;;;;;;;22.54;24.88;96578.50;5017832;28;20609;-54
2023/02/21 12:52:37;;;;;;;2.63;2.53;;;;;;;22.65;24.41;96595.84;5033062;28;20496;-55
2023/02/21 12:55:22;;;;;;;2.28;2.25;;;;;;;22.17;23.81;96527.41;5016750;28;20444;-55
2023/02/21 12:58:01;;;;;;;2.50;2.40;;;;;;;22.65;23.96;96578.91;5004687;28;20050;-56
2023/02/21 13:00:40;;;;;;;2.47;2.38;;;;;;;22.62;24.21;96562.88;5011880;28;20719;-54
2023/02/21 13:03:16;;;;;;;2.45;2.38;;;;;;;22.58;23.87;96584.81;5024878;28;20123;-59
2023/02/21 13:06:17;;;;;;;2.75;2.65;;;;;;;22.33;23.58;96580.84;5012750;28;20487;-56
2023/02/21 13:09:09;;;;;;;2.20;2.20;;;;;;;22.20;23.37;96577.28;5010797;28;20057;-57
2023/02/21 13:11:45;;;;;;;2.25;2.25;;;;;;;22.19;23.65;96570.06;5018758;28;20103;-56
2023/02/21 13:14:17;;;;;;;2.50;2.40;;;;;;;22.10;23.77;96561.53;5022239;28;20057;-58
2023/02/21 13:16:44;;;;;;;2.03;2.03;;;;;;;22.17;23.96;96560.47;5018726;28;21175;-57
2023/02/21 13:19:12;;;;;;;2.38;2.33;;;;;;;22.11;23.60;96562.31;5020517;28;20050;-57
2023/02/21 13:21:54;;;;;;;2.60;2.50;;;;;;;21.98;23.67;96559.56;5020097;28;20129;-55
2023/02/21 13:24:35;;;;;;;2.50;2.40;;;;;;;22.03;23.99;96555.34;5005431;28;20136;-56
2023/02/21 13:27:41;;;;;;;2.55;2.45;;;;;;;22.07;23.77;96556.81;5010367;28;20091;-54
2023/02/21 13:30:26;;;;;;;2.22;2.22;;;;;;;22.11;23.89;96546.16;5011934;28;20049;-54
2023/02/21 13:32:56;;;;;;;2.42;2.33;;;;;;;21.93;23.59;96545.22;5015268;28;20049;-57
2023/02/21 13:35:33;;;;;;;2.50;2.40;;;;;;;22.00;23.61;96551.41;5017399;28;20053;-56
2023/02/21 13:38:01;;;;;;;2.50;2.40;;;;;;;21.90;23.80;96520.75;5016484;28;20496;-57
2023/02/21 13:40:40;;;;;;;2.50;2.40;;;;;;;22.05;23.20;96545.19;5015562;28;20504;-55
2023/02/21 13:43:13;;;;;;;2.83;2.72;;;;;;;22.09;23.41;96543.03;5019314;28;20129;-56
2023/02/21 13:45:40;;;;;;;2.60;2.50;;;;;;;22.16;23.46;96536.34;5007795;28;20049;-56
2023/02/21 13:48:06;;;;;;;2.65;2.55;;;;;;;22.17;23.70;96544.34;5022388;28;20053;-55
2023/02/21 13:50:33;;;;;;;2.70;2.60;;;;;;;22.23;23.79;96531.22;5022865;28;20128;-54
2023/02/21 13:53:32;;;;;;;2.50;2.40;;;;;;;22.29;23.64;96540.66;5022983;28;20057;-55
2023/02/21 13:55:58;;;;;;;2.28;2.28;;;;;;;22.19;23.57;96530.56;5017031;28;20149;-57
2023/02/21 13:58:39;;;;;;;2.20;2.20;;;;;;;22.20;23.21;96537.78;5005675;28;20518;-57
2023/02/21 14:01:13;;;;;;;2.38;2.30;;;;;;;22.18;23.41;96534.63;5016016;28;20556;-57
2023/02/21 14:03:40;;;;;;;2.78;2.67;;;;;;;22.10;23.43;96527.66;5012909;28;20056;-56
2023/02/21 14:06:07;;;;;;;2.42;2.35;;;;;;;22.01;23.02;96530.44;5017962;28;20057;-56
2023/02/21 14:08:33;;;;;;;2.38;2.35;;;;;;;21.96;22.93;96578.97;5019691;28;20050;-56
2023/02/21 14:11:06;;;;;;;2.80;2.70;;;;;;;21.92;23.38;96536.00;5007748;28;20064;-56
2023/02/21 14:13:53;;;;;;;2.20;2.20;;;;;;;21.86;23.81;96539.84;5023807;28;20447;-59
2023/02/21 14:16:34;;;;;;;2.28;2.25;;;;;;;21.69;23.92;96542.00;5017885;28;20049;-54
2023/02/21 14:19:10;;;;;;;2.50;2.40;;;;;;;21.67;23.92;96538.84;5011659;28;20103;-59
2023/02/21 14:21:45;;;;;;;2.25;2.25;;;;;;;21.61;23.90;96537.84;5019599;28;20062;-56